createdAt,value
2023-03-26T00:02:12.418Z,53.40
2023-03-26T00:04:39.478Z,53.47
2023-03-26T00:07:06.470Z,53.51
2023-03-26T00:09:33.464Z,53.46
2023-03-26T00:12:00.503Z,53.32
2023-03-26T00:14:27.503Z,53.34
2023-03-26T00:16:54.533Z,53.33
2023-03-26T00:19:21.922Z,53.30
2023-03-26T00:21:48.948Z,53.29
2023-03-26T00:24:15.977Z,53.25
2023-03-26T00:26:43.059Z,53.11
2023-03-26T00:29:10.078Z,53.12
2023-03-26T00:31:37.135Z,53.15
2023-03-26T00:34:04.148Z,53.04
2023-03-26T00:36:31.167Z,53.01
2023-03-26T00:38:58.173Z,52.90
2023-03-26T00:41:25.306Z,52.67
2023-03-26T00:43:52.406Z,52.71
2023-03-26T00:46:19.513Z,52.62
2023-03-26T00:48:46.600Z,52.40
2023-03-26T00:51:16.592Z,52.43
2023-03-26T00:53:43.603Z,52.40
2023-03-26T00:56:10.646Z,52.46
2023-03-26T00:58:37.663Z,52.45
2023-03-26T01:01:04.755Z,52.59
2023-03-26T01:03:31.948Z,52.60
2023-03-26T01:05:59.054Z,52.57
2023-03-26T01:08:26.063Z,52.46
2023-03-26T01:10:53.069Z,52.55
2023-03-26T01:13:20.088Z,52.51
2023-03-26T01:15:47.156Z,52.43
2023-03-26T01:18:14.187Z,52.33
2023-03-26T01:20:41.438Z,52.32
2023-03-26T01:23:08.450Z,52.21
2023-03-26T01:25:36.621Z,52.23
2023-03-26T01:28:03.673Z,52.19
2023-03-26T01:30:30.690Z,52.24
2023-03-26T01:32:59.845Z,52.09
2023-03-26T01:35:26.940Z,52.20
2023-03-26T01:37:53.977Z,52.19
2023-03-26T01:40:20.971Z,52.09
2023-03-26T01:42:47.986Z,52.07
2023-03-26T01:45:15.003Z,52.13
2023-03-26T01:47:43.240Z,52.14
2023-03-26T01:50:10.252Z,52.22
2023-03-26T01:52:37.281Z,52.06
2023-03-26T01:55:04.282Z,52.16
2023-03-26T01:57:31.285Z,52.13
2023-03-26T02:00:01.001Z,52.30
2023-03-26T02:02:28.184Z,52.34
2023-03-26T02:04:55.366Z,52.38
2023-03-26T02:07:22.352Z,52.35
2023-03-26T02:09:49.362Z,52.44
2023-03-26T02:12:16.424Z,52.27
2023-03-26T02:14:43.418Z,52.45
2023-03-26T02:17:10.637Z,52.36
2023-03-26T02:19:37.656Z,52.42
2023-03-26T02:22:04.667Z,52.36
2023-03-26T02:24:31.722Z,52.42
2023-03-26T02:26:58.759Z,52.35
2023-03-26T02:29:25.790Z,52.40
2023-03-26T02:31:52.895Z,52.21
2023-03-26T02:34:20.092Z,52.13
2023-03-26T02:36:47.189Z,52.21
2023-03-26T02:39:14.256Z,52.16
2023-03-26T02:41:41.321Z,52.13
2023-03-26T02:44:08.358Z,52.27
2023-03-26T02:46:35.411Z,52.18
2023-03-26T02:49:04.680Z,52.13
2023-03-26T02:51:31.716Z,52.12
2023-03-26T02:53:58.755Z,52.06
2023-03-26T02:56:25.747Z,52.07
2023-03-26T02:58:52.896Z,52.06
2023-03-26T03:01:19.926Z,51.97
2023-03-26T03:03:49.297Z,52.00
2023-03-26T03:06:16.335Z,51.90
2023-03-26T03:08:43.323Z,52.00
2023-03-26T03:11:10.404Z,51.84
2023-03-26T03:13:37.462Z,51.89
2023-03-26T03:16:04.466Z,51.77
2023-03-26T03:18:31.532Z,51.74
2023-03-26T03:20:58.522Z,51.73
2023-03-26T03:23:25.774Z,51.71
2023-03-26T03:25:53.139Z,51.74
2023-03-26T03:28:20.619Z,51.65
2023-03-26T03:30:47.650Z,51.54
2023-03-26T03:33:14.668Z,51.63
2023-03-26T03:35:41.769Z,51.65
2023-03-26T03:38:08.849Z,51.63
2023-03-26T03:40:35.887Z,51.74
2023-03-26T03:43:02.901Z,51.70
2023-03-26T03:45:29.940Z,51.70
2023-03-26T03:47:57.007Z,51.62
2023-03-26T03:50:24.066Z,51.60
2023-03-26T03:52:51.072Z,51.57
2023-03-26T03:55:18.150Z,51.65
2023-03-26T03:57:45.171Z,51.43
2023-03-26T04:00:13.573Z,51.37
2023-03-26T04:02:40.741Z,51.20
2023-03-26T04:05:07.847Z,51.12
2023-03-26T04:07:34.893Z,50.90
2023-03-26T04:10:01.907Z,50.88
2023-03-26T04:12:28.960Z,50.58
2023-03-26T04:14:56.062Z,50.55
2023-03-26T04:17:23.121Z,50.56
2023-03-26T04:19:50.194Z,50.29
2023-03-26T04:22:17.244Z,50.12
2023-03-26T04:24:44.245Z,50.13
2023-03-26T04:27:12.023Z,50.03
2023-03-26T04:29:39.066Z,49.87
2023-03-26T04:32:06.107Z,49.77
2023-03-26T04:34:33.299Z,49.64
2023-03-26T04:37:00.337Z,49.64
2023-03-26T04:39:27.365Z,49.56
2023-03-26T04:41:54.407Z,49.44
2023-03-26T04:44:21.428Z,49.41
2023-03-26T04:46:48.529Z,49.33
2023-03-26T04:49:15.553Z,49.31
2023-03-26T04:51:42.584Z,49.21
2023-03-26T04:54:09.644Z,49.17
2023-03-26T04:56:36.708Z,49.02
2023-03-26T04:59:03.780Z,49.00
2023-03-26T05:01:30.959Z,49.02
2023-03-26T05:03:58.099Z,49.00
2023-03-26T05:06:25.134Z,48.95
2023-03-26T05:08:52.181Z,48.94
2023-03-26T05:11:19.261Z,48.82
2023-03-26T05:13:46.271Z,48.72
2023-03-26T05:16:13.316Z,48.83
2023-03-26T05:18:40.393Z,48.77
2023-03-26T05:21:07.454Z,48.86
2023-03-26T05:23:34.485Z,48.92
2023-03-26T05:26:01.525Z,49.01
2023-03-26T05:28:28.559Z,48.99
2023-03-26T05:30:55.821Z,49.10
2023-03-26T05:33:23.148Z,49.14
2023-03-26T05:35:50.310Z,49.13
2023-03-26T05:38:17.325Z,49.02
2023-03-26T05:40:44.353Z,49.06
2023-03-26T05:43:11.402Z,49.06
2023-03-26T05:45:38.425Z,49.18
2023-03-26T05:48:05.526Z,49.37
2023-03-26T05:50:32.584Z,49.26
2023-03-26T05:52:59.611Z,49.42
2023-03-26T05:55:27.783Z,49.42
2023-03-26T05:57:54.804Z,49.45
2023-03-26T06:00:22.065Z,49.28
2023-03-26T06:02:50.242Z,49.42
2023-03-26T06:05:23.643Z,49.36
2023-03-26T06:07:50.675Z,49.46
2023-03-26T06:10:18.516Z,49.46
2023-03-26T06:12:47.486Z,49.55
2023-03-26T06:15:15.612Z,49.63
2023-03-26T06:17:42.626Z,49.61
2023-03-26T06:20:09.720Z,49.75
2023-03-26T06:22:36.729Z,49.70
2023-03-26T06:25:03.778Z,49.70
2023-03-26T06:27:30.834Z,49.82
2023-03-26T06:29:57.874Z,49.85
2023-03-26T06:32:24.986Z,49.89
2023-03-26T06:34:53.490Z,49.88
2023-03-26T06:37:20.548Z,49.75
2023-03-26T06:39:47.674Z,49.85
2023-03-26T06:42:14.684Z,49.85
2023-03-26T06:44:41.758Z,50.02
2023-03-26T06:47:08.760Z,50.13
2023-03-26T06:49:35.848Z,49.93
2023-03-26T06:52:02.945Z,50.03
2023-03-26T06:54:29.931Z,49.98
2023-03-26T06:56:56.982Z,49.96
2023-03-26T06:59:24.039Z,50.05
2023-03-26T07:01:51.068Z,49.93
2023-03-26T07:04:18.173Z,50.02
2023-03-26T07:06:47.802Z,49.92
2023-03-26T07:09:14.797Z,49.99
2023-03-26T07:11:41.839Z,49.83
2023-03-26T07:14:08.917Z,49.88
2023-03-26T07:16:36.002Z,49.88
2023-03-26T07:19:05.347Z,49.84
2023-03-26T07:21:32.368Z,49.95
2023-03-26T07:23:59.747Z,50.01
2023-03-26T07:26:29.124Z,49.98
2023-03-26T07:29:04.464Z,50.10
2023-03-26T07:31:32.405Z,50.13
2023-03-26T07:33:59.476Z,50.08
2023-03-26T07:36:26.532Z,50.06
2023-03-26T07:38:53.641Z,50.11
2023-03-26T07:41:20.675Z,50.17
2023-03-26T07:43:50.470Z,50.21
2023-03-26T07:46:17.573Z,50.09
2023-03-26T07:48:44.655Z,50.11
2023-03-26T07:51:11.712Z,50.32
2023-03-26T07:53:38.764Z,50.46
2023-03-26T07:56:05.877Z,50.26
2023-03-26T07:58:32.898Z,50.16
2023-03-26T08:01:00.676Z,50.29
2023-03-26T08:03:27.931Z,50.08
2023-03-26T08:05:55.113Z,50.15
2023-03-26T08:08:22.321Z,50.25
2023-03-26T08:10:50.107Z,50.36
2023-03-26T08:13:17.143Z,50.33
2023-03-26T08:15:44.280Z,50.22
2023-03-26T08:18:11.343Z,50.27
2023-03-26T08:20:38.500Z,50.03
2023-03-26T08:23:05.498Z,50.15
2023-03-26T08:25:32.591Z,50.04
2023-03-26T08:27:59.629Z,49.95
2023-03-26T08:30:26.681Z,49.98
2023-03-26T08:32:53.729Z,49.96
2023-03-26T08:35:20.896Z,50.07
2023-03-26T08:37:47.983Z,50.07
2023-03-26T08:40:15.018Z,50.06
2023-03-26T08:42:42.062Z,50.08
2023-03-26T08:45:09.080Z,49.92
2023-03-26T08:47:38.770Z,49.98
2023-03-26T08:50:05.834Z,49.94
2023-03-26T08:52:32.873Z,50.13
2023-03-26T08:54:59.960Z,50.01
2023-03-26T08:57:27.021Z,49.92
2023-03-26T08:59:54.048Z,49.83
2023-03-26T09:02:21.093Z,49.84
2023-03-26T09:04:48.139Z,49.90
2023-03-26T09:07:15.142Z,50.21
2023-03-26T09:09:42.165Z,50.00
2023-03-26T09:12:09.190Z,50.10
2023-03-26T09:14:36.255Z,49.99
2023-03-26T09:17:03.286Z,50.29
2023-03-26T09:19:30.333Z,50.27
2023-03-26T09:22:00.395Z,50.36
2023-03-26T09:24:27.410Z,50.38
2023-03-26T09:26:54.476Z,50.24
2023-03-26T09:29:23.725Z,50.51
2023-03-26T09:31:50.892Z,50.24
2023-03-26T09:34:17.932Z,50.37
2023-03-26T09:36:45.211Z,50.33
2023-03-26T09:39:12.207Z,50.31
2023-03-26T09:41:39.219Z,50.61
2023-03-26T09:44:06.226Z,50.41
2023-03-26T09:46:33.248Z,50.57
2023-03-26T09:49:00.276Z,50.64
2023-03-26T09:51:29.555Z,50.45
2023-03-26T09:53:56.564Z,50.45
2023-03-26T09:56:23.595Z,50.61
2023-03-26T09:58:50.658Z,50.37
2023-03-26T10:01:17.726Z,50.44
2023-03-26T10:03:44.806Z,50.33
2023-03-26T10:06:12.648Z,50.26
2023-03-26T10:08:39.699Z,50.23
2023-03-26T10:11:06.713Z,50.26
2023-03-26T10:13:33.789Z,50.19
2023-03-26T10:16:00.818Z,50.22
2023-03-26T10:18:30.118Z,50.11
2023-03-26T10:20:57.555Z,50.26
2023-03-26T10:23:24.593Z,50.19
2023-03-26T10:25:51.614Z,50.38
2023-03-26T10:28:18.642Z,50.32
2023-03-26T10:30:45.764Z,50.29
2023-03-26T10:33:12.767Z,50.14
2023-03-26T10:35:39.840Z,50.13
2023-03-26T10:38:06.903Z,50.03
2023-03-26T10:40:33.939Z,49.90
2023-03-26T10:43:01.012Z,49.94
2023-03-26T10:45:28.050Z,50.22
2023-03-26T10:47:55.155Z,50.09
2023-03-26T10:50:22.753Z,50.21
2023-03-26T10:52:50.809Z,50.23
2023-03-26T10:58:06.009Z,49.97
2023-03-26T11:00:33.198Z,50.19
2023-03-26T11:03:01.876Z,50.18
2023-03-26T11:05:35.047Z,49.99
2023-03-26T11:08:02.179Z,50.00
2023-03-26T11:55:08.762Z,49.97
2023-03-26T14:14:23.902Z,50.21
2023-03-26T14:16:57.342Z,50.10
2023-03-26T14:19:25.067Z,49.83
2023-03-26T14:21:52.737Z,49.64
2023-03-26T14:24:20.293Z,49.87
2023-03-26T14:26:47.893Z,49.55
2023-03-26T15:40:54.580Z,48.55
2023-03-26T16:01:12.386Z,50.02
2023-03-26T17:19:36.982Z,49.85
2023-03-26T17:36:59.192Z,49.14
2023-03-26T17:39:26.241Z,48.98
2023-03-26T17:41:53.263Z,48.74
2023-03-26T17:44:20.387Z,49.17
2023-03-26T17:46:48.530Z,49.01
2023-03-26T17:49:15.741Z,48.80
2023-03-26T17:51:42.793Z,48.89
2023-03-26T17:54:09.930Z,48.88
2023-03-26T17:56:37.012Z,48.60
2023-03-26T17:59:11.964Z,48.69
2023-03-26T18:01:39.588Z,48.77
2023-03-26T18:04:06.655Z,48.77
2023-03-26T18:06:33.675Z,48.55
2023-03-26T18:09:00.725Z,48.63
2023-03-26T18:11:27.740Z,48.56
2023-03-26T18:13:54.812Z,48.84
2023-03-26T18:16:21.882Z,48.72
2023-03-26T18:18:48.925Z,48.84
2023-03-26T18:21:15.918Z,49.00
2023-03-26T18:23:42.961Z,48.83
2023-03-26T18:26:09.983Z,48.99
2023-03-26T18:28:36.998Z,48.80
2023-03-26T18:31:04.006Z,49.08
2023-03-26T18:33:31.059Z,49.22
2023-03-26T18:35:58.167Z,49.17
2023-03-26T18:38:38.218Z,48.98
2023-03-26T18:41:06.569Z,49.17
2023-03-26T18:43:35.244Z,49.04
2023-03-26T18:46:02.789Z,49.04
2023-03-26T18:48:29.880Z,49.15
2023-03-26T18:50:57.720Z,49.21
2023-03-26T18:53:25.386Z,49.22
2023-03-26T18:55:55.544Z,49.48
2023-03-26T18:58:22.594Z,49.54
2023-03-26T19:00:49.651Z,49.56
2023-03-26T19:15:14.557Z,49.48
2023-03-26T19:17:41.631Z,49.39
2023-03-26T19:20:08.685Z,49.38
2023-03-26T19:22:35.761Z,49.24
2023-03-26T19:25:02.796Z,49.32
2023-03-26T19:28:25.423Z,49.45
2023-03-26T19:30:33.910Z,49.52
2023-03-26T19:33:12.783Z,49.76
2023-03-26T19:42:06.912Z,49.96
2023-03-26T19:44:34.363Z,50.29
2023-03-26T19:47:01.673Z,50.56
2023-03-26T19:49:29.012Z,50.87
2023-03-26T19:51:56.428Z,51.40
2023-03-26T19:54:27.802Z,51.58
2023-03-26T19:57:00.450Z,51.62
2023-03-26T19:59:27.932Z,51.91
2023-03-26T20:01:58.424Z,52.26
2023-03-26T20:16:31.950Z,53.18
2023-03-26T20:19:22.966Z,53.51
2023-03-26T20:21:51.201Z,53.44
2023-03-26T20:24:52.120Z,53.57
2023-03-26T20:36:39.709Z,54.02
2023-03-26T20:48:39.039Z,54.27
2023-03-26T20:51:20.634Z,54.50
2023-03-26T20:54:18.780Z,54.51
2023-03-26T21:00:47.083Z,54.47
2023-03-26T22:02:54.612Z,55.59
2023-03-26T22:08:50.681Z,55.52
2023-03-26T22:11:31.264Z,55.46
2023-03-26T22:17:25.887Z,55.49
2023-03-26T22:23:00.346Z,55.50
2023-03-26T22:25:57.742Z,55.38
2023-03-26T22:29:02.118Z,55.34
2023-03-26T22:38:39.733Z,55.02
2023-03-26T22:44:34.748Z,55.12
2023-03-26T22:47:14.216Z,55.25
2023-03-26T22:50:31.034Z,55.28
2023-03-26T22:52:58.669Z,55.30
2023-03-26T23:01:43.297Z,55.62
2023-03-26T23:02:42.045Z,55.65
2023-03-26T23:04:48.639Z,55.59
2023-03-26T23:07:32.562Z,55.72
2023-03-26T23:12:58.162Z,55.52
2023-03-26T23:15:38.395Z,55.38
2023-03-26T23:18:08.135Z,55.45
2023-03-26T23:20:49.064Z,55.22
2023-03-26T23:26:49.714Z,54.92
2023-03-26T23:29:59.221Z,55.11
2023-03-26T23:35:24.303Z,54.88
2023-03-26T23:37:57.790Z,54.85
2023-03-26T23:43:54.417Z,54.72
2023-03-26T23:46:46.386Z,54.71
2023-03-26T23:49:21.227Z,54.71
2023-03-26T23:55:08.119Z,54.62
